Language selection

My Weather Profile Weather Topics  | 

Douglas Channel: Past 24 Hour Conditions

 

Sandspit Airport

03:00 PM PDT 06 May 2021
Disclaimer

This table is a summary of hourly weather conditions for the past 24 hours.
Please note that these observations might not always be representative of weather conditions over their associated marine area.

Date / Time
(PDT)
Wind(knots) Conditions Visibility(km) Pressure(kPa) Air tempC) Relative humidity(%) Dew pointC)
06 May 2021
15:00 SSE 13 Light Rain 16 100.2 8 90 7
14:00 SSE 15 Light Rain 16 100.2 8 90 7
13:00 SSE 17 Light Rain 16 100.1 8 92 7
12:00 SE 17 Light Rain 16 100.0 8 91 7
11:00 SE 13 Light Rain 16 100.0 9 93 8
10:00 SSE 16 Light Rain 10 100.0 8 93 7
9:00 SSE 19 Light Rain 10 100.0 8 92 7
8:00 SE 18 gust 25 Light Rain 15 100.0 9 97 9
7:00 SSE 20 gust 26 Light Rain 10 100.0 9 97 8
6:00 SE 22 Light Rain 10 100.0 9 96 8
5:00 SSE 25 gust 30 Mist 10 100.1 9 94 8
4:00 SE 21 gust 29 Cloudy 15 100.1 9 91 8
3:00 SE 23 gust 31 Cloudy 16 100.2 9 89 8
2:00 SE 23 Cloudy 16 100.3 9 88 7
1:00 SE 22 Cloudy 16 100.4 9 88 7
0:00 SE 16 gust 21 Cloudy 16 100.5 9 86 7
05 May 2021
23:00 SE 14 Cloudy 16 100.6 9 89 7
22:00 SE 18 gust 23 Cloudy 16 100.6 9 87 7
21:00 SE 21 Cloudy 16 100.7 9 87 7
20:00 SE 21 gust 26 Cloudy 16 100.8 9 89 7
19:00 SE 21 Light Rain 16 100.9 9 92 8
18:00 ESE 19 gust 25 Light Rain 15 101.0 8 91 7
17:00 SE 19 gust 24 Cloudy 16 101.1 9 87 7
16:00 SE 20 gust 26 Light Rain 16 101.2 9 89 7
15:00 ESE 21 Cloudy 16 101.3 10 85 7

Zoom-in to make a selection

Map of Pacific - North Coast marine weather areas Middle Nomad - 46004 South Nomad - 46036 Dixon Entrance Central - 46145 South Moresby - 46147 Nanakwa Shoal - 46181 North Hecate Strait - 46183 North Nomad - 46184 South Hecate Strait - 46185 West Sea Otter - 46204 West Dixon Entrance - 46205 East Dellwood - 46207 West Moresby - 46208 Sartine Island Cape St.James Kindakun Rocks Langara Island Masset Municipal Airport Rose Spit Sandspit Airport Bella Bella Airport Bella Coola Airport Bonilla Island Cathedral Point Cumshewa Island Grey Islet Holland Rock Lucy Islands Lightstation Prince Rupert Airport
Legend:
buoy Buoy
land station Land Station

Pacific - North Coast Area

Another Region

What we are doing

Date modified: